Luce Township, Michigan
Current Conditions -  °F | °C
As of 6:53 PM on Sunday 21 Dec 2014 (Local Time) from KARB Reporting Station
Overcast Overcast  
Wind Chill: 24°   Ceiling: 5000
Heat Index: 31°   Visibility: 9mi
Dew Point: 24°   Wind: 7mph
Humidity: 76%   Direction: 130°SE
Pressure: 30.22"   Gusts: NA
Location:  42.3129°N, 84.0322°W
Report Text: KARB 212353Z AUTO 13006KT 9SM OVC050 M01/M04 A3022 RMK AO2 SLP242 T10061044 10011 21006 56000
Loading
Personal Weather Stations






























Interactive Weather Map New forecast layout! Learn more

10-Day Weather Forecast

Advertisements
Track Severe Weather on mobile